Time;durP1;ratioP1;P1;durP2;ratioP2;P2;SDS_P1;SDS_P2;PMS_P1;PMS_P2;Temp;Humidity;BMP_temperature;BMP_pressure;BME280_temperature;BME280_humidity;BME280_pressure;Samples;Min_cycle;Max_cycle;Signal;HPM_P1;HPM_P2
2023/02/15 00:02:15;;;;;;;18.40;10.68;;;23.10;42.50;;;;;;6237648;27;82798;-46
2023/02/15 00:05:16;;;;;;;15.48;9.75;;;23.10;42.60;;;;;;6237191;27;82845;-58
2023/02/15 00:45:21;;;;;;;12.32;8.70;;;22.90;43.90;;;;;;6216574;28;80576;-58
2023/02/15 00:48:21;;;;;;;13.60;8.55;;;23.00;44.30;;;;;;6237144;28;80700;-58
2023/02/15 00:51:22;;;;;;;12.10;8.60;;;22.90;44.20;;;;;;6219293;27;80689;-58
2023/02/15 00:54:22;;;;;;;13.02;8.60;;;22.90;44.00;;;;;;6219852;27;83269;-58
2023/02/15 00:57:24;;;;;;;13.07;8.73;;;22.90;43.90;;;;;;6219240;28;82435;-58
2023/02/15 01:00:24;;;;;;;11.98;8.48;;;22.90;44.40;;;;;;6250883;27;80920;-58
2023/02/15 01:03:25;;;;;;;12.57;8.13;;;22.90;43.60;;;;;;6242026;27;80144;-58
2023/02/15 01:06:25;;;;;;;11.75;8.45;;;22.90;43.60;;;;;;6240166;28;81268;-59
2023/02/15 01:09:26;;;;;;;11.75;7.47;;;22.90;43.80;;;;;;6225532;28;83026;-58
2023/02/15 01:12:26;;;;;;;9.70;7.70;;;22.90;43.80;;;;;;6260293;27;80541;-59
2023/02/15 01:15:27;;;;;;;11.25;7.90;;;22.90;43.50;;;;;;6243117;27;80252;-59
2023/02/15 01:18:27;;;;;;;12.65;8.13;;;22.90;43.50;;;;;;6248752;27;81527;-58
2023/02/15 01:21:29;;;;;;;12.45;7.75;;;22.90;43.60;;;;;;6231870;28;82281;-57
2023/02/15 01:24:29;;;;;;;11.57;7.93;;;22.90;43.50;;;;;;6230150;28;82069;-58
2023/02/15 01:27:30;;;;;;;12.48;8.05;;;22.90;43.50;;;;;;6246308;27;81301;-58
2023/02/15 01:30:31;;;;;;;13.18;7.90;;;22.90;43.50;;;;;;6246136;28;81262;-58
2023/02/15 01:33:31;;;;;;;10.63;7.65;;;22.90;43.50;;;;;;6246313;27;81030;-58
2023/02/15 01:36:32;;;;;;;10.52;6.53;;;22.90;43.50;;;;;;6249175;28;80825;-58
2023/02/15 01:39:32;;;;;;;12.40;7.80;;;22.90;43.60;;;;;;6231132;27;83483;-59
2023/02/15 01:42:33;;;;;;;9.27;6.22;;;22.90;43.60;;;;;;6250071;28;80571;-58
2023/02/15 01:45:33;;;;;;;11.40;7.47;;;22.90;43.60;;;;;;6248376;27;80233;-58
2023/02/15 01:48:34;;;;;;;9.23;6.25;;;22.90;43.60;;;;;;6250950;28;80870;-60
2023/02/15 01:51:36;;;;;;;11.35;6.50;;;22.80;43.60;;;;;;6229187;28;80463;-58
2023/02/15 01:54:37;;;;;;;9.40;6.55;;;22.90;43.70;;;;;;6245516;27;81492;-59
2023/02/15 01:57:38;;;;;;;7.65;5.78;;;22.90;43.80;;;;;;6228353;28;83042;-58
2023/02/15 02:00:39;;;;;;;11.50;6.97;;;22.80;44.00;;;;;;6251436;28;80536;-59
2023/02/15 02:03:39;;;;;;;8.73;6.30;;;22.90;44.00;;;;;;6237721;28;81271;-57
2023/02/15 02:06:40;;;;;;;8.45;6.05;;;22.80;44.00;;;;;;6214590;28;83403;-57
2023/02/15 02:09:40;;;;;;;8.40;6.18;;;22.80;44.00;;;;;;6248181;28;80738;-58
2023/02/15 02:12:41;;;;;;;9.07;6.35;;;22.90;44.00;;;;;;6241106;27;82201;-50
2023/02/15 02:15:42;;;;;;;10.50;6.40;;;22.80;44.00;;;;;;6230818;28;83083;-47
2023/02/15 02:18:43;;;;;;;9.70;6.38;;;22.80;44.10;;;;;;6248966;28;81065;-45
2023/02/15 02:21:43;;;;;;;8.23;5.75;;;22.90;44.20;;;;;;6249173;28;80488;-49
2023/02/15 02:24:45;;;;;;;12.27;6.47;;;22.80;44.00;;;;;;6231960;28;81234;-46
2023/02/15 02:27:45;;;;;;;8.93;6.25;;;22.80;44.10;;;;;;6245741;28;80822;-48
2023/02/15 02:30:46;;;;;;;10.18;6.80;;;22.80;44.00;;;;;;6226046;28;81541;-45
2023/02/15 02:33:46;;;;;;;7.85;5.80;;;22.80;44.10;;;;;;6227752;28;81875;-45
2023/02/15 02:36:47;;;;;;;8.93;6.00;;;22.90;44.10;;;;;;6246491;28;80388;-47
2023/02/15 02:39:47;;;;;;;10.18;6.00;;;22.80;44.10;;;;;;6249543;27;81417;-48
2023/02/15 02:42:48;;;;;;;9.48;6.72;;;22.80;43.80;;;;;;6231645;28;81859;-48
2023/02/15 02:45:48;;;;;;;10.23;6.72;;;22.80;43.80;;;;;;6229492;28;81721;-47
2023/02/15 02:48:51;;;;;;;10.43;6.97;;;22.80;43.60;;;;;;6250991;27;80320;-45
2023/02/15 02:51:51;;;;;;;9.45;6.68;;;22.80;43.90;;;;;;6251470;27;80760;-46
2023/02/15 02:54:52;;;;;;;8.85;6.57;;;22.80;43.60;;;;;;6228366;27;83077;-45
2023/02/15 02:57:52;;;;;;;10.98;6.93;;;22.80;43.50;;;;;;6253472;28;80354;-51
2023/02/15 03:00:53;;;;;;;8.52;6.18;;;22.80;43.40;;;;;;6233036;27;83213;-47
2023/02/15 03:03:54;;;;;;;10.32;6.38;;;22.80;43.20;;;;;;6222811;28;83042;-47
2023/02/15 03:06:55;;;;;;;10.65;6.63;;;22.80;43.30;;;;;;6232141;28;83276;-48
2023/02/15 03:09:56;;;;;;;10.73;7.22;;;22.80;43.10;;;;;;6213528;28;83635;-47
2023/02/15 03:12:56;;;;;;;9.95;6.95;;;22.80;43.00;;;;;;6259602;27;80686;-49
2023/02/15 03:19:16;;;;;;;10.27;6.55;;;22.80;42.90;;;;;;6251376;27;83525;-47
2023/02/15 03:22:19;;;;;;;10.98;7.32;;;22.80;43.10;;;;;;6250354;27;80770;-45
2023/02/15 03:25:19;;;;;;;10.77;7.05;;;22.70;43.20;;;;;;6239154;27;81007;-46
2023/02/15 03:28:20;;;;;;;9.80;6.93;;;22.70;43.10;;;;;;6225351;28;83006;-57
2023/02/15 03:31:21;;;;;;;11.38;7.93;;;22.70;43.20;;;;;;6229577;27;81039;-55
2023/02/15 03:34:21;;;;;;;8.40;6.85;;;22.70;43.10;;;;;;6244486;28;80297;-58
2023/02/15 03:37:22;;;;;;;11.18;7.43;;;22.70;43.30;;;;;;6252143;28;80659;-59
2023/02/15 03:43:42;;;;;;;10.18;6.85;;;22.70;43.40;;;;;;6243831;27;80473;-57
2023/02/15 03:46:42;;;;;;;11.05;7.13;;;22.70;43.40;;;;;;6241745;27;81632;-58
2023/02/15 03:49:43;;;;;;;10.73;7.40;;;22.70;43.50;;;;;;6237882;27;81522;-59
2023/02/15 03:52:43;;;;;;;9.57;7.35;;;22.70;43.20;;;;;;6240189;28;80217;-59
2023/02/15 03:55:44;;;;;;;10.90;7.65;;;22.70;43.40;;;;;;6239990;28;81427;-58
2023/02/15 04:02:03;;;;;;;8.25;6.88;;;22.70;43.10;;;;;;6250688;27;81750;-58
2023/02/15 04:05:04;;;;;;;10.18;7.78;;;22.70;43.40;;;;;;6251747;27;80899;-58
2023/02/15 04:08:05;;;;;;;9.88;7.82;;;22.70;43.20;;;;;;6243106;28;82666;-59
2023/02/15 04:11:05;;;;;;;11.23;8.02;;;22.70;43.30;;;;;;6255561;27;80708;-58
2023/02/15 04:17:25;;;;;;;11.27;8.45;;;22.70;43.20;;;;;;6237538;27;80387;-58
2023/02/15 04:27:04;;;;;;;12.52;8.48;;;22.80;42.40;;;;;;6240695;27;80309;-58
2023/02/15 04:30:04;;;;;;;11.95;8.10;;;22.80;42.20;;;;;;6248302;28;80877;-58
2023/02/15 04:33:05;;;;;;;11.45;8.40;;;22.80;42.00;;;;;;6248526;28;80771;-54
2023/02/15 04:36:05;;;;;;;15.52;8.60;;;22.90;42.00;;;;;;6249553;27;80396;-58
2023/02/15 04:39:06;;;;;;;13.13;7.85;;;22.90;41.90;;;;;;6250438;27;80481;-47
2023/02/15 04:42:06;;;;;;;12.77;8.48;;;23.00;41.80;;;;;;6248055;28;80365;-47
2023/02/15 04:45:07;;;;;;;11.32;8.55;;;23.00;41.70;;;;;;6250966;28;80150;-59
2023/02/15 04:48:07;;;;;;;12.10;8.63;;;23.10;41.60;;;;;;6232124;27;80261;-46
2023/02/15 04:51:09;;;;;;;13.05;8.60;;;23.10;41.30;;;;;;6247437;28;80369;-46
2023/02/15 04:54:09;;;;;;;12.02;8.80;;;23.20;41.10;;;;;;6249779;27;80411;-47
2023/02/15 04:57:10;;;;;;;12.82;9.18;;;23.20;41.20;;;;;;6235594;27;80564;-51
2023/02/15 05:00:11;;;;;;;14.68;8.02;;;23.20;41.40;;;;;;6250028;27;80749;-46
2023/02/15 05:03:11;;;;;;;13.73;8.90;;;23.30;41.60;;;;;;6234666;27;82023;-47
2023/02/15 05:06:12;;;;;;;11.90;8.73;;;23.30;41.70;;;;;;6234058;27;81848;-49
2023/02/15 05:09:12;;;;;;;15.40;8.45;;;23.30;41.70;;;;;;6235530;27;82064;-49
2023/02/15 05:12:13;;;;;;;12.80;8.50;;;23.30;41.70;;;;;;6247030;27;80802;-61
2023/02/15 05:15:13;;;;;;;13.15;9.30;;;23.40;41.70;;;;;;6227558;27;84313;-64
2023/02/15 05:18:14;;;;;;;14.52;9.13;;;23.30;42.00;;;;;;6234402;27;81298;-62
2023/02/15 05:21:16;;;;;;;13.32;9.60;;;23.40;41.40;;;;;;6238150;27;80691;-59
2023/02/15 05:30:55;;;;;;;14.57;8.75;;;23.40;41.40;;;;;;6236760;27;81481;-48
2023/02/15 05:33:56;;;;;;;13.23;8.73;;;23.40;41.60;;;;;;6238607;27;80495;-48
2023/02/15 05:36:56;;;;;;;12.90;8.93;;;23.50;41.90;;;;;;6240347;27;80771;-47
2023/02/15 05:39:57;;;;;;;14.73;9.00;;;23.50;42.30;;;;;;6245389;27;82116;-47
2023/02/15 05:42:57;;;;;;;13.50;8.75;;;23.50;42.50;;;;;;6240263;27;81351;-51
2023/02/15 05:45:58;;;;;;;15.25;9.20;;;23.30;42.50;;;;;;6236968;27;81263;-51
2023/02/15 05:48:58;;;;;;;14.60;9.07;;;23.40;43.20;;;;;;6241781;27;81379;-57
2023/02/15 05:52:02;;;;;;;14.60;8.68;;;23.40;43.40;;;;;;6220131;28;81101;-52
2023/02/15 05:55:03;;;;;;;13.38;9.02;;;23.40;43.10;;;;;;6241463;27;80502;-58
2023/02/15 05:58:03;;;;;;;17.33;9.20;;;23.40;42.70;;;;;;6238553;27;85180;-58
2023/02/15 06:01:04;;;;;;;12.77;8.95;;;23.40;43.30;;;;;;6224286;27;81098;-56
2023/02/15 06:04:04;;;;;;;16.33;8.95;;;23.30;43.70;;;;;;6231537;27;82765;-58
2023/02/15 06:07:05;;;;;;;13.05;8.75;;;23.30;43.70;;;;;;6237491;27;85801;-58
2023/02/15 06:10:05;;;;;;;16.88;9.15;;;23.30;43.90;;;;;;6230450;27;80409;-57
2023/02/15 06:13:06;;;;;;;15.02;9.93;;;23.30;44.10;;;;;;6249093;27;81478;-69
2023/02/15 06:16:06;;;;;;;12.85;9.07;;;23.30;44.00;;;;;;6239411;27;81162;-62
2023/02/15 06:19:07;;;;;;;14.43;9.15;;;23.30;43.70;;;;;;6237929;27;81242;-57
2023/02/15 06:22:07;;;;;;;13.35;9.13;;;23.30;43.40;;;;;;6220167;27;82513;-58
2023/02/15 06:25:09;;;;;;;14.13;9.65;;;23.20;43.60;;;;;;6239841;27;81009;-58
2023/02/15 06:28:10;;;;;;;13.55;8.73;;;23.20;42.60;;;;;;6215092;28;81149;-58
2023/02/15 06:31:10;;;;;;;16.35;9.52;;;23.20;42.80;;;;;;6235522;27;80401;-56
2023/02/15 06:34:11;;;;;;;16.33;9.45;;;23.20;42.70;;;;;;6244917;27;81102;-58
2023/02/15 06:37:11;;;;;;;14.38;9.80;;;23.20;42.60;;;;;;6247319;27;80209;-58
2023/02/15 06:40:12;;;;;;;13.35;9.73;;;23.20;42.30;;;;;;6252271;28;80553;-58
2023/02/15 06:43:12;;;;;;;11.90;9.43;;;23.10;42.00;;;;;;6253380;28;80637;-58
2023/02/15 06:46:13;;;;;;;12.98;9.63;;;23.10;41.80;;;;;;6252578;27;80863;-57
2023/02/15 06:49:13;;;;;;;14.85;9.25;;;23.00;41.20;;;;;;6254399;28;80538;-58
2023/02/15 06:52:14;;;;;;;16.55;9.95;;;23.00;41.50;;;;;;6253851;28;81065;-58
2023/02/15 06:55:14;;;;;;;13.73;10.05;;;23.00;41.30;;;;;;6242628;27;80278;-58
2023/02/15 06:58:15;;;;;;;13.40;9.82;;;22.90;41.10;;;;;;6249766;27;83163;-58
2023/02/15 07:01:15;;;;;;;13.23;10.02;;;22.90;41.50;;;;;;6252583;27;87384;-59
2023/02/15 07:04:16;;;;;;;13.63;10.48;;;22.90;41.20;;;;;;6238920;27;83150;-58
2023/02/15 07:07:16;;;;;;;15.10;10.43;;;22.90;41.10;;;;;;6232615;27;88468;-57
2023/02/15 07:10:17;;;;;;;14.90;10.30;;;22.90;41.00;;;;;;6234586;27;85293;-68
2023/02/15 07:13:18;;;;;;;13.20;9.40;;;22.90;40.90;;;;;;6247593;27;83151;-56
2023/02/15 07:16:18;;;;;;;13.82;9.65;;;22.90;41.00;;;;;;6227861;27;82991;-59
2023/02/15 07:19:19;;;;;;;16.95;10.10;;;22.90;40.80;;;;;;6233711;28;80805;-58
2023/02/15 07:22:19;;;;;;;12.57;9.80;;;22.80;40.80;;;;;;6229486;27;84351;-59
2023/02/15 07:25:20;;;;;;;16.35;9.50;;;22.80;40.90;;;;;;6242274;27;82794;-57
2023/02/15 07:28:21;;;;;;;14.90;9.95;;;22.80;41.00;;;;;;6229887;27;83614;-57
2023/02/15 07:31:22;;;;;;;12.65;9.15;;;22.80;41.50;;;;;;6245418;27;80476;-56
2023/02/15 07:34:22;;;;;;;11.38;8.45;;;22.80;41.40;;;;;;6254665;27;83407;-59
2023/02/15 07:37:23;;;;;;;14.05;9.32;;;22.80;41.20;;;;;;6261275;27;82546;-57
2023/02/15 07:40:24;;;;;;;12.90;9.07;;;22.80;41.10;;;;;;6251805;27;83589;-56
2023/02/15 07:43:24;;;;;;;15.23;8.85;;;22.80;41.10;;;;;;6257285;27;83372;-54
2023/02/15 07:46:25;;;;;;;12.93;9.18;;;22.80;41.10;;;;;;6229213;27;81220;-51
2023/02/15 07:49:25;;;;;;;15.85;9.02;;;22.80;41.20;;;;;;6243137;27;80339;-53
2023/02/15 07:52:27;;;;;;;12.55;8.45;;;22.80;41.10;;;;;;6246122;27;80685;-53
2023/02/15 07:55:27;;;;;;;10.02;8.25;;;22.80;41.40;;;;;;6259811;27;82070;-49
2023/02/15 08:01:47;;;;;;;14.35;8.95;;;22.80;41.70;;;;;;6207702;27;85445;-56
2023/02/15 08:04:48;;;;;;;13.18;8.43;;;22.80;41.50;;;;;;6237501;27;80299;-56
2023/02/15 08:07:48;;;;;;;10.48;8.15;;;22.90;41.70;;;;;;6232909;27;80761;-52
2023/02/15 08:14:08;;;;;;;25.20;13.98;;;22.90;41.90;;;;;;6239359;27;85573;-61
2023/02/15 08:17:08;;;;;;;112.75;49.85;;;23.00;41.80;;;;;;6233129;27;86621;-60
2023/02/15 08:20:09;;;;;;;289.05;116.60;;;23.00;41.90;;;;;;6226323;28;87552;-59
2023/02/15 08:23:09;;;;;;;482.77;202.65;;;23.00;41.60;;;;;;6228115;27;85604;-60
2023/02/15 08:26:10;;;;;;;784.17;382.63;;;23.10;41.50;;;;;;6224957;27;89575;-60
2023/02/15 08:29:10;;;;;;;1035.90;504.65;;;23.10;41.10;;;;;;6225464;28;86424;-58
2023/02/15 08:32:11;;;;;;;998.35;489.00;;;23.10;40.70;;;;;;6234032;27;87641;-59
2023/02/15 08:35:12;;;;;;;927.10;455.70;;;23.20;40.80;;;;;;6237785;27;85314;-61
2023/02/15 08:38:12;;;;;;;836.38;405.13;;;23.30;40.70;;;;;;6239454;27;88718;-61
2023/02/15 08:41:13;;;;;;;764.40;365.42;;;23.30;41.20;;;;;;6238484;27;85729;-63
2023/02/15 08:44:13;;;;;;;721.92;343.08;;;23.50;41.40;;;;;;6235694;27;86260;-62
2023/02/15 08:47:14;;;;;;;653.30;308.92;;;23.50;41.20;;;;;;6239335;27;85884;-62
2023/02/15 08:50:14;;;;;;;600.60;280.58;;;23.60;41.00;;;;;;6236704;27;85615;-62
2023/02/15 08:53:15;;;;;;;573.22;259.85;;;23.70;40.80;;;;;;6238184;27;88427;-61
2023/02/15 08:56:15;;;;;;;535.83;235.18;;;23.70;40.40;;;;;;6232807;27;85964;-62
2023/02/15 08:59:16;;;;;;;478.05;202.65;;;23.80;40.50;;;;;;6233881;27;91912;-61
2023/02/15 09:02:16;;;;;;;415.42;165.80;;;23.90;40.30;;;;;;6238183;27;86550;-58
2023/02/15 09:05:17;;;;;;;220.90;99.28;;;23.90;39.70;;;;;;6236483;27;86132;-58
2023/02/15 09:08:17;;;;;;;153.30;66.65;;;23.50;37.30;;;;;;6236857;27;85399;-58
2023/02/15 09:11:22;;;;;;;91.68;43.65;;;23.10;37.40;;;;;;6232360;27;83354;-61
2023/02/15 09:14:26;;;;;;;56.20;29.88;;;22.70;36.30;;;;;;6234330;27;83303;-59
2023/02/15 09:17:28;;;;;;;39.17;22.23;;;22.30;36.00;;;;;;6239856;27;83245;-57
2023/02/15 09:20:28;;;;;;;28.98;19.05;;;22.00;35.80;;;;;;6228246;27;83801;-57
2023/02/15 09:23:29;;;;;;;39.70;21.70;;;21.80;35.80;;;;;;6242743;28;82973;-58
2023/02/15 09:26:29;;;;;;;41.33;20.33;;;21.80;37.00;;;;;;6240920;27;88771;-56
2023/02/15 09:29:30;;;;;;;31.95;20.10;;;21.80;37.40;;;;;;6223644;28;88276;-58
2023/02/15 09:32:30;;;;;;;29.73;18.88;;;21.90;37.80;;;;;;6231318;28;83600;-58
2023/02/15 09:35:31;;;;;;;27.15;17.10;;;21.90;37.60;;;;;;6226520;28;84621;-53
2023/02/15 09:38:31;;;;;;;24.20;15.63;;;21.90;37.60;;;;;;6228997;27;83407;-55
2023/02/15 09:41:32;;;;;;;25.83;16.10;;;22.10;37.70;;;;;;6232723;28;83540;-56
2023/02/15 09:44:32;;;;;;;19.60;14.45;;;22.20;37.60;;;;;;6222851;27;83147;-55
2023/02/15 09:47:33;;;;;;;21.85;15.88;;;22.30;37.60;;;;;;6173206;27;85168;-62
2023/02/15 09:50:34;;;;;;;20.52;15.88;;;22.20;36.80;;;;;;6058095;27;85950;-63
2023/02/15 09:53:35;;;;;;;22.33;15.32;;;22.00;36.30;;;;;;6243606;27;83428;-58
2023/02/15 09:56:37;;;;;;;21.77;14.02;;;21.80;36.80;;;;;;6242792;27;88489;-53
2023/02/15 09:59:37;;;;;;;17.55;12.57;;;22.20;38.00;;;;;;6243696;27;83205;-58
2023/02/15 10:02:38;;;;;;;18.10;12.73;;;22.50;37.50;;;;;;6240172;27;84245;-49
2023/02/15 10:05:39;;;;;;;19.65;12.98;;;22.80;37.80;;;;;;6235624;27;88024;-53
2023/02/15 10:08:39;;;;;;;16.45;12.10;;;23.00;37.80;;;;;;6244773;28;84401;-48
2023/02/15 10:11:40;;;;;;;16.85;11.82;;;23.20;37.90;;;;;;6243384;27;83469;-51
2023/02/15 10:14:41;;;;;;;16.52;11.98;;;23.40;37.90;;;;;;6245866;27;86139;-51
2023/02/15 10:17:41;;;;;;;15.73;11.68;;;23.60;37.90;;;;;;6225796;28;84700;-51
2023/02/15 10:20:42;;;;;;;16.85;11.02;;;23.70;37.70;;;;;;6213432;27;84379;-52
2023/02/15 10:23:43;;;;;;;16.75;12.40;;;23.80;37.50;;;;;;6220456;27;82961;-51
2023/02/15 10:26:44;;;;;;;19.85;11.10;;;24.00;37.70;;;;;;6242549;27;82870;-47
2023/02/15 10:29:44;;;;;;;16.20;12.43;;;24.00;37.70;;;;;;6240899;27;84020;-52
2023/02/15 10:32:45;;;;;;;15.70;11.82;;;24.10;37.70;;;;;;6237508;27;83203;-52
2023/02/15 10:35:45;;;;;;;19.77;12.80;;;24.10;37.50;;;;;;6239125;27;83604;-49
2023/02/15 10:38:46;;;;;;;15.77;12.07;;;24.30;37.30;;;;;;6239231;27;83839;-51
2023/02/15 10:41:46;;;;;;;16.63;12.60;;;24.30;37.30;;;;;;6231733;27;83039;-51
2023/02/15 10:44:47;;;;;;;17.30;12.65;;;24.40;37.20;;;;;;6237851;27;83392;-54
2023/02/15 10:47:47;;;;;;;15.25;11.38;;;24.50;37.10;;;;;;6234136;28;83555;-49
2023/02/15 10:50:48;;;;;;;16.20;12.50;;;24.60;37.00;;;;;;6235622;27;84419;-51
2023/02/15 10:53:49;;;;;;;16.45;12.27;;;24.60;36.90;;;;;;6238634;28;83736;-50
2023/02/15 10:56:50;;;;;;;18.27;12.55;;;24.70;36.90;;;;;;6233315;27;82983;-53
2023/02/15 10:59:52;;;;;;;17.30;12.70;;;24.80;36.70;;;;;;6227665;27;86641;-51
2023/02/15 11:02:53;;;;;;;21.83;13.85;;;24.80;36.60;;;;;;6239496;28;83451;-51
2023/02/15 11:05:54;;;;;;;17.15;12.98;;;24.90;36.50;;;;;;6232928;28;83320;-53
2023/02/15 11:08:55;;;;;;;18.33;13.27;;;24.90;36.40;;;;;;6235322;28;83319;-54
2023/02/15 11:11:57;;;;;;;17.90;13.45;;;25.00;36.40;;;;;;6242145;27;83853;-55
2023/02/15 11:14:57;;;;;;;17.48;12.60;;;25.00;36.30;;;;;;6237474;28;83900;-53
2023/02/15 11:17:58;;;;;;;19.85;12.82;;;25.10;36.30;;;;;;6231392;28;85692;-53
2023/02/15 11:20:58;;;;;;;20.50;13.15;;;25.10;36.10;;;;;;6242270;27;83380;-52
2023/02/15 11:23:59;;;;;;;18.13;13.15;;;25.20;36.00;;;;;;6237287;27;82927;-54
2023/02/15 11:26:59;;;;;;;20.63;13.48;;;25.20;35.90;;;;;;6228788;28;83611;-50
2023/02/15 11:30:00;;;;;;;23.17;14.40;;;25.30;36.40;;;;;;6235775;28;83003;-52
2023/02/15 11:33:01;;;;;;;22.48;15.90;;;25.30;35.70;;;;;;6240246;27;85525;-55
2023/02/15 11:36:02;;;;;;;21.17;14.43;;;25.30;35.60;;;;;;6233172;27;85108;-50
2023/02/15 11:39:03;;;;;;;19.17;13.75;;;25.40;35.70;;;;;;6234672;27;83236;-50
2023/02/15 11:42:04;;;;;;;23.30;14.27;;;25.40;35.60;;;;;;6237321;27;84398;-49
2023/02/15 11:45:04;;;;;;;17.45;13.13;;;25.40;35.70;;;;;;6237023;27;83081;-51
2023/02/15 11:48:05;;;;;;;16.15;12.20;;;25.40;36.00;;;;;;6225399;27;84034;-51
2023/02/15 11:51:05;;;;;;;19.63;12.88;;;25.50;36.30;;;;;;6241844;27;90085;-55
2023/02/15 11:54:06;;;;;;;16.85;11.95;;;25.50;36.20;;;;;;6222133;28;86092;-52
2023/02/15 11:57:06;;;;;;;17.40;12.68;;;25.50;36.60;;;;;;6225504;28;82957;-53
2023/02/15 12:00:07;;;;;;;17.08;12.20;;;25.50;35.80;;;;;;6219666;28;84320;-65
2023/02/15 12:03:08;;;;;;;18.85;11.65;;;25.50;35.60;;;;;;6250087;28;83097;-67
2023/02/15 12:06:09;;;;;;;16.58;10.68;;;25.50;35.40;;;;;;6242582;28;84109;-65
2023/02/15 12:09:09;;;;;;;14.30;9.90;;;25.50;35.80;;;;;;6229750;28;84862;-67
2023/02/15 12:12:10;;;;;;;14.05;9.20;;;25.60;36.20;;;;;;6238933;27;82912;-67
2023/02/15 12:15:10;;;;;;;12.15;8.95;;;25.60;36.60;;;;;;6231995;27;81053;-68
2023/02/15 12:18:11;;;;;;;10.70;8.48;;;25.60;36.80;;;;;;6224613;27;85236;-65
2023/02/15 12:21:14;;;;;;;15.73;8.88;;;25.70;37.20;;;;;;6245911;27;85657;-64
2023/02/15 12:24:15;;;;;;;11.63;8.50;;;25.70;37.20;;;;;;6244958;28;80703;-65
2023/02/15 12:27:15;;;;;;;12.23;8.38;;;25.80;37.40;;;;;;6247297;27;83827;-68
2023/02/15 12:30:16;;;;;;;10.40;7.57;;;25.90;38.00;;;;;;6240301;27;82297;-66
2023/02/15 12:33:17;;;;;;;10.95;7.20;;;25.90;38.30;;;;;;6235725;27;80675;-66
2023/02/15 12:36:17;;;;;;;10.40;7.20;;;26.00;38.60;;;;;;6234253;27;82602;-68
2023/02/15 12:39:19;;;;;;;9.82;7.07;;;26.00;38.60;;;;;;6246468;28;80690;-68
2023/02/15 12:42:19;;;;;;;8.05;6.00;;;26.00;38.70;;;;;;6237992;27;84071;-67
2023/02/15 12:45:20;;;;;;;9.80;6.60;;;26.00;38.80;;;;;;6228343;28;82538;-67
2023/02/15 12:48:20;;;;;;;8.60;6.13;;;26.00;39.00;;;;;;6241649;27;80876;-67
2023/02/15 12:51:21;;;;;;;9.65;6.88;;;26.00;39.20;;;;;;6234709;27;85078;-68
2023/02/15 12:54:21;;;;;;;10.90;6.80;;;26.00;39.30;;;;;;6243406;27;80934;-70
2023/02/15 12:57:22;;;;;;;13.98;7.25;;;26.00;39.50;;;;;;6231144;27;81735;-70
2023/02/15 13:00:22;;;;;;;10.38;7.40;;;26.10;39.70;;;;;;6238820;27;80515;-68
2023/02/15 13:03:23;;;;;;;10.07;6.97;;;26.10;39.90;;;;;;6239112;27;81241;-68
2023/02/15 13:06:24;;;;;;;9.95;7.57;;;26.10;39.90;;;;;;6239560;27;81632;-69
2023/02/15 13:09:24;;;;;;;11.65;7.60;;;26.10;40.00;;;;;;6218176;28;81537;-70
2023/02/15 13:12:30;;;;;;;10.23;7.45;;;26.10;40.20;;;;;;6246530;27;80788;-69
2023/02/15 13:15:30;;;;;;;14.38;8.30;;;26.10;40.20;;;;;;6234464;27;80136;-69
2023/02/15 13:18:31;;;;;;;10.93;7.50;;;26.10;40.20;;;;;;6246082;27;81972;-70
2023/02/15 13:21:32;;;;;;;11.23;7.90;;;26.10;40.30;;;;;;6236561;27;80146;-69
2023/02/15 13:24:32;;;;;;;11.07;8.13;;;26.10;40.30;;;;;;6242081;27;82229;-69
2023/02/15 13:27:33;;;;;;;12.38;7.65;;;26.10;40.10;;;;;;6243530;27;80577;-69
2023/02/15 13:30:34;;;;;;;9.05;7.15;;;26.10;40.00;;;;;;6248397;28;81402;-68
2023/02/15 13:33:35;;;;;;;9.73;7.20;;;26.10;40.00;;;;;;6236509;27;80444;-67
2023/02/15 13:36:41;;;;;;;14.48;11.38;;;26.10;40.00;;;;;;6251126;27;80393;-67
2023/02/15 13:39:41;;;;;;;15.27;11.00;;;26.00;38.30;;;;;;6237835;27;83259;-69
2023/02/15 13:42:42;;;;;;;15.95;12.70;;;25.90;37.10;;;;;;6247987;27;83351;-69
2023/02/15 13:45:44;;;;;;;17.08;12.85;;;25.90;37.00;;;;;;6246558;28;86549;-67
2023/02/15 13:48:44;;;;;;;19.73;14.07;;;25.80;36.30;;;;;;6244888;27;86168;-67
2023/02/15 13:51:45;;;;;;;20.00;14.27;;;25.70;35.80;;;;;;6248154;27;82901;-67
2023/02/15 13:54:45;;;;;;;18.85;14.38;;;25.70;35.70;;;;;;6245463;27;83229;-71
2023/02/15 13:57:46;;;;;;;20.90;14.80;;;25.70;35.20;;;;;;6236668;27;84324;-69
2023/02/15 14:00:46;;;;;;;23.45;15.63;;;25.70;35.10;;;;;;6233049;28;83229;-65
2023/02/15 14:03:47;;;;;;;21.17;15.57;;;25.70;34.70;;;;;;6222670;27;83307;-67
2023/02/15 14:06:47;;;;;;;20.55;16.50;;;25.80;34.40;;;;;;6241729;28;85713;-72
2023/02/15 14:09:48;;;;;;;20.73;16.27;;;25.90;34.00;;;;;;6243022;27;84254;-69
2023/02/15 14:12:48;;;;;;;20.92;16.77;;;26.20;33.60;;;;;;6245061;27;84233;-68
2023/02/15 14:15:50;;;;;;;23.80;17.02;;;26.80;32.80;;;;;;6244240;27;82912;-69
2023/02/15 14:18:50;;;;;;;22.00;17.02;;;27.70;31.80;;;;;;6247037;28;83839;-68
2023/02/15 14:21:51;;;;;;;22.38;16.50;;;28.40;31.10;;;;;;6230987;27;84199;-70
2023/02/15 14:24:52;;;;;;;19.88;17.05;;;28.80;30.50;;;;;;6235240;27;83249;-71
2023/02/15 14:27:53;;;;;;;23.23;16.33;;;29.10;30.20;;;;;;6239928;28;83203;-71
2023/02/15 14:30:54;;;;;;;24.30;16.77;;;29.30;30.10;;;;;;6233858;27;88324;-72
2023/02/15 14:33:55;;;;;;;21.40;16.70;;;29.40;30.00;;;;;;6231143;27;83510;-71
2023/02/15 14:36:55;;;;;;;22.67;17.15;;;29.40;30.00;;;;;;6227805;28;83298;-67
2023/02/15 14:43:15;;;;;;;23.80;17.05;;;28.70;31.10;;;;;;6244073;27;83067;-63
2023/02/15 14:46:15;;;;;;;19.45;15.30;;;28.20;31.90;;;;;;6227113;27;90370;-62
2023/02/15 14:49:16;;;;;;;39.47;23.30;;;27.70;32.30;;;;;;6232035;27;87615;-62
2023/02/15 14:52:16;;;;;;;186.30;90.18;;;27.30;33.00;;;;;;6240356;27;83094;-62
2023/02/15 14:55:17;;;;;;;330.52;143.20;;;27.00;33.30;;;;;;6236813;27;82935;-63
2023/02/15 14:58:17;;;;;;;453.00;207.63;;;26.60;33.60;;;;;;6217986;27;86989;-61
2023/02/15 15:01:18;;;;;;;552.13;258.83;;;26.40;34.00;;;;;;6225049;27;85913;-64
2023/02/15 15:04:18;;;;;;;548.92;259.38;;;26.20;34.30;;;;;;6225917;27;86405;-61
2023/02/15 15:07:19;;;;;;;614.97;290.35;;;25.90;34.40;;;;;;6232657;27;85355;-61
2023/02/15 15:10:20;;;;;;;536.53;248.60;;;25.70;35.00;;;;;;6220980;27;88007;-61
2023/02/15 15:13:21;;;;;;;506.02;226.77;;;25.60;35.10;;;;;;6218914;27;88020;-59
2023/02/15 15:16:21;;;;;;;426.05;195.65;;;25.50;35.30;;;;;;6217033;28;86867;-62
2023/02/15 15:19:21;;;;;;;395.52;181.70;;;25.30;35.50;;;;;;6224333;28;88352;-63
2023/02/15 15:22:23;;;;;;;388.65;180.48;;;25.30;35.70;;;;;;6226727;27;87347;-61
2023/02/15 15:25:23;;;;;;;365.75;166.90;;;25.20;35.80;;;;;;6214829;28;87929;-62
2023/02/15 15:28:24;;;;;;;330.45;160.75;;;25.10;36.00;;;;;;6225134;27;85711;-61
2023/02/15 15:31:24;;;;;;;287.10;138.30;;;25.00;36.10;;;;;;6217281;28;87089;-63
2023/02/15 15:34:25;;;;;;;252.02;117.78;;;24.90;36.30;;;;;;6218977;28;85923;-61
2023/02/15 15:37:25;;;;;;;210.43;101.15;;;24.80;36.50;;;;;;6223616;28;85423;-60
2023/02/15 15:40:26;;;;;;;164.60;82.18;;;24.70;36.70;;;;;;6230381;28;88110;-62
2023/02/15 15:43:30;;;;;;;153.07;75.88;;;24.60;37.00;;;;;;6240244;27;85381;-61
2023/02/15 15:46:31;;;;;;;134.68;62.92;;;24.50;37.30;;;;;;6227508;27;83586;-62
2023/02/15 15:49:31;;;;;;;115.60;57.60;;;24.30;37.10;;;;;;6235696;27;86671;-62
2023/02/15 15:52:38;;;;;;;102.70;50.95;;;24.20;37.40;;;;;;6234542;27;82847;-66
2023/02/15 15:55:38;;;;;;;112.05;52.13;;;24.10;37.70;;;;;;6235124;27;83960;-70
2023/02/15 15:58:39;;;;;;;104.68;49.17;;;24.20;38.00;;;;;;6232808;27;84926;-65
2023/02/15 16:01:39;;;;;;;100.28;45.67;;;24.20;38.10;;;;;;6227789;27;84164;-72
2023/02/15 16:04:40;;;;;;;92.55;45.35;;;24.20;38.30;;;;;;6231742;27;83982;-68
2023/02/15 16:07:40;;;;;;;90.80;43.15;;;24.20;38.50;;;;;;6237147;27;83245;-69
2023/02/15 16:10:41;;;;;;;90.53;43.17;;;24.20;38.90;;;;;;6230333;27;84151;-67
2023/02/15 16:13:41;;;;;;;85.47;42.28;;;24.20;39.30;;;;;;6237864;27;83637;-67
2023/02/15 16:16:42;;;;;;;88.88;41.83;;;24.10;39.30;;;;;;6222372;27;85215;-72
2023/02/15 16:19:43;;;;;;;76.25;38.55;;;24.10;39.30;;;;;;6234127;27;86739;-67
2023/02/15 16:22:43;;;;;;;75.82;38.03;;;24.10;39.10;;;;;;6229314;27;87107;-67
2023/02/15 16:25:44;;;;;;;68.90;35.88;;;24.10;39.10;;;;;;6237156;27;83639;-74
2023/02/15 16:28:44;;;;;;;64.80;34.85;;;24.00;39.60;;;;;;6233782;27;83580;-62
2023/02/15 16:31:45;;;;;;;69.50;33.45;;;24.10;40.50;;;;;;6229111;27;83251;-67
2023/02/15 16:34:45;;;;;;;63.85;33.30;;;24.10;40.80;;;;;;6230002;27;86054;-67